createdAt,value
2018-12-12T00:01:06.921Z,2.00
2018-12-12T00:03:35.292Z,1.98
2018-12-12T00:06:05.080Z,2.08
2018-12-12T00:08:33.503Z,2.00
2018-12-12T00:11:04.360Z,1.97
2018-12-12T00:13:32.764Z,1.83
2018-12-12T00:16:03.688Z,1.83
2018-12-12T00:18:32.096Z,1.82
2018-12-12T00:21:00.472Z,1.82
2018-12-12T00:23:28.872Z,1.77
2018-12-12T00:25:57.247Z,1.76
2018-12-12T00:28:25.664Z,1.84
2018-12-12T00:30:54.168Z,1.88
2018-12-12T00:33:22.568Z,1.94
2018-12-12T00:35:50.957Z,2.09
2018-12-12T00:38:19.364Z,2.21
2018-12-12T00:40:47.752Z,2.33
2018-12-12T00:43:16.187Z,2.51
2018-12-12T00:45:44.620Z,2.46
2018-12-12T00:48:13.017Z,2.45
2018-12-12T00:50:41.512Z,2.46
2018-12-12T00:53:09.900Z,2.46
2018-12-12T00:55:38.288Z,2.42
2018-12-12T00:58:06.692Z,2.42
2018-12-12T01:00:35.068Z,2.30
2018-12-12T01:03:05.187Z,2.33
2018-12-12T01:05:33.680Z,2.25
2018-12-12T01:08:05.425Z,2.10
2018-12-12T01:10:33.800Z,1.97
2018-12-12T01:13:06.044Z,1.92
2018-12-12T01:15:34.432Z,1.89
2018-12-12T01:18:06.222Z,1.90
2018-12-12T01:20:34.594Z,1.90
2018-12-12T01:23:06.108Z,1.85
2018-12-12T01:25:34.491Z,1.81
2018-12-12T01:28:06.141Z,1.79
2018-12-12T01:30:34.516Z,1.82
2018-12-12T01:33:08.123Z,1.79
2018-12-12T01:35:36.499Z,1.77
2018-12-12T01:38:05.074Z,1.70
2018-12-12T01:40:33.461Z,1.73
2018-12-12T01:43:04.159Z,1.76
2018-12-12T01:45:32.694Z,1.77
2018-12-12T01:48:03.685Z,1.77
2018-12-12T01:50:32.107Z,1.73
2018-12-12T01:53:00.484Z,1.74
2018-12-12T01:55:28.905Z,1.78
2018-12-12T01:57:57.300Z,1.78
2018-12-12T02:00:25.732Z,1.85
2018-12-12T02:02:54.361Z,1.84
2018-12-12T02:05:22.755Z,1.84
2018-12-12T02:07:51.440Z,1.82
2018-12-12T02:10:19.980Z,1.85
2018-12-12T02:12:58.295Z,1.80
2018-12-12T02:15:26.704Z,1.85
2018-12-12T02:17:55.081Z,1.82
2018-12-12T02:20:23.467Z,1.87
2018-12-12T02:22:51.896Z,1.83
2018-12-12T02:25:20.276Z,1.88
2018-12-12T02:27:48.676Z,1.93
2018-12-12T02:30:17.092Z,1.92
2018-12-12T02:32:45.464Z,1.88
2018-12-12T02:35:13.888Z,1.83
2018-12-12T02:37:42.274Z,1.86
2018-12-12T02:40:10.957Z,1.87
2018-12-12T02:42:39.520Z,1.94
2018-12-12T02:45:08.051Z,1.96
2018-12-12T02:47:36.536Z,2.01
2018-12-12T02:50:05.522Z,1.89
2018-12-12T02:52:33.920Z,1.84
2018-12-12T02:55:04.602Z,1.80
2018-12-12T02:57:32.993Z,1.75
2018-12-12T03:00:04.165Z,1.80
2018-12-12T03:02:32.859Z,1.91
2018-12-12T03:05:03.690Z,1.89
2018-12-12T03:07:32.173Z,1.91
2018-12-12T03:10:00.604Z,1.94
2018-12-12T03:12:28.981Z,1.94
2018-12-12T03:14:57.385Z,1.87
2018-12-12T03:17:25.762Z,1.85
2018-12-12T03:19:54.177Z,1.83
2018-12-12T03:22:22.571Z,1.87
2018-12-12T03:24:51.009Z,1.82
2018-12-12T03:27:19.390Z,1.79
2018-12-12T03:29:47.776Z,1.75
2018-12-12T03:32:16.183Z,1.77
2018-12-12T03:34:44.691Z,1.80
2018-12-12T03:37:13.108Z,1.80
2018-12-12T03:39:42.430Z,1.74
2018-12-12T03:42:11.366Z,1.69
2018-12-12T03:44:39.809Z,1.77
2018-12-12T03:47:08.360Z,1.80
2018-12-12T03:54:44.286Z,1.83
2018-12-12T03:57:12.658Z,1.77
2018-12-12T03:59:41.069Z,1.79
2018-12-12T04:02:09.516Z,1.80
2018-12-12T04:04:37.897Z,1.79
2018-12-12T04:07:06.320Z,1.75
2018-12-12T04:09:34.708Z,1.62
2018-12-12T04:12:05.425Z,1.62
2018-12-12T04:14:33.800Z,1.59
2018-12-12T04:17:07.853Z,1.65
2018-12-12T04:19:36.248Z,1.72
2018-12-12T04:22:05.164Z,1.84
2018-12-12T04:24:33.974Z,1.85
2018-12-12T04:27:04.376Z,1.79
2018-12-12T04:29:32.773Z,1.84
2018-12-12T04:32:03.804Z,1.79
2018-12-12T04:34:32.180Z,1.78
2018-12-12T04:37:00.559Z,1.74
2018-12-12T04:39:28.974Z,1.78
2018-12-12T04:41:58.729Z,1.81
2018-12-12T04:44:27.280Z,1.78
2018-12-12T04:46:55.752Z,1.61
2018-12-12T04:49:24.389Z,1.61
2018-12-12T04:51:52.764Z,1.57
2018-12-12T04:54:21.181Z,1.63
2018-12-12T04:56:49.588Z,1.57
2018-12-12T04:59:18.312Z,1.52
2018-12-12T05:01:46.735Z,1.52
2018-12-12T05:04:15.123Z,1.45
2018-12-12T05:06:43.535Z,1.54
2018-12-12T05:09:11.958Z,1.53
2018-12-12T05:11:40.373Z,1.53
2018-12-12T05:14:08.780Z,1.55
2018-12-12T05:16:37.184Z,1.62
2018-12-12T05:19:05.576Z,1.61
2018-12-12T05:21:33.988Z,1.63
2018-12-12T05:24:04.656Z,1.66
2018-12-12T05:26:33.073Z,1.73
2018-12-12T05:29:03.724Z,1.74
2018-12-12T05:31:32.132Z,1.73
2018-12-12T05:34:00.515Z,1.68
2018-12-12T05:36:28.901Z,1.59
2018-12-12T05:38:57.325Z,1.50
2018-12-12T05:41:25.943Z,1.54
2018-12-12T05:43:57.632Z,1.54
2018-12-12T05:46:24.716Z,1.61
2018-12-12T05:48:53.205Z,1.60
2018-12-12T05:51:21.599Z,1.56
2018-12-12T05:53:50.104Z,1.58
2018-12-12T05:56:18.551Z,1.53
2018-12-12T05:58:46.936Z,1.53
2018-12-12T06:01:15.427Z,1.58
2018-12-12T06:03:43.840Z,1.49
2018-12-12T06:06:12.571Z,1.62
2018-12-12T06:08:40.963Z,1.66
2018-12-12T06:11:09.352Z,1.56
2018-12-12T06:13:37.759Z,1.57
2018-12-12T06:16:06.151Z,1.65
2018-12-12T06:18:34.567Z,1.68
2018-12-12T06:21:07.459Z,1.68
2018-12-12T06:23:35.888Z,1.66
2018-12-12T06:26:05.631Z,1.64
2018-12-12T06:28:34.015Z,1.58
2018-12-12T06:31:05.340Z,1.57
2018-12-12T06:33:33.721Z,1.71
2018-12-12T06:36:05.614Z,1.61
2018-12-12T06:38:34.008Z,1.49
2018-12-12T06:41:05.545Z,1.51
2018-12-12T06:43:33.936Z,1.44
2018-12-12T06:46:05.136Z,1.46
2018-12-12T06:48:33.567Z,1.48
2018-12-12T06:51:04.572Z,1.46
2018-12-12T06:53:33.303Z,1.51
2018-12-12T06:58:35.741Z,1.61
2018-12-12T07:01:06.048Z,1.58
2018-12-12T07:03:34.545Z,1.57
2018-12-12T07:06:05.901Z,1.50
2018-12-12T07:08:34.278Z,1.39
2018-12-12T07:11:05.551Z,1.43
2018-12-12T07:13:35.882Z,1.42
2018-12-12T07:16:06.144Z,1.48
2018-12-12T07:18:34.547Z,1.48
2018-12-12T07:21:05.855Z,1.53
2018-12-12T07:23:34.247Z,1.53
2018-12-12T07:26:05.023Z,1.54
2018-12-12T07:28:33.401Z,1.56
2018-12-12T07:31:04.453Z,1.52
2018-12-12T07:33:32.829Z,1.47
2018-12-12T07:36:03.581Z,1.47
2018-12-12T07:38:31.975Z,1.42
2018-12-12T07:41:00.388Z,1.44
2018-12-12T07:43:28.762Z,1.49
2018-12-12T07:45:57.209Z,1.57
2018-12-12T07:48:25.637Z,1.60
2018-12-12T07:50:54.062Z,1.60
2018-12-12T07:53:22.467Z,1.62
2018-12-12T07:55:51.108Z,1.62
2018-12-12T07:58:19.492Z,1.57
2018-12-12T08:00:47.928Z,1.52
2018-12-12T08:03:16.310Z,1.55
2018-12-12T08:05:44.724Z,1.66
2018-12-12T08:08:13.113Z,1.67
2018-12-12T08:10:42.132Z,1.61
2018-12-12T08:13:10.516Z,1.53
2018-12-12T08:15:38.917Z,1.59
2018-12-12T08:18:07.360Z,1.56
2018-12-12T08:20:35.750Z,1.57
2018-12-12T08:23:05.196Z,1.58
2018-12-12T08:25:34.367Z,1.70
2018-12-12T08:28:05.405Z,1.73
2018-12-12T08:30:33.800Z,1.73
2018-12-12T08:33:10.943Z,1.71
2018-12-12T08:35:35.033Z,1.79
2018-12-12T08:38:05.186Z,1.73
2018-12-12T08:40:33.623Z,1.73
2018-12-12T08:43:05.404Z,1.82
2018-12-12T08:45:33.804Z,1.89
2018-12-12T08:48:05.343Z,1.97
2018-12-12T08:50:33.744Z,2.06
2018-12-12T08:53:05.921Z,2.14
2018-12-12T08:55:34.344Z,2.12
2018-12-12T08:58:05.285Z,2.11
2018-12-12T09:00:33.668Z,2.10
2018-12-12T09:03:04.700Z,2.08
2018-12-12T09:05:33.327Z,2.07
2018-12-12T09:08:03.652Z,2.05
2018-12-12T09:10:32.065Z,2.01
2018-12-12T09:13:00.455Z,2.02
2018-12-12T09:15:29.156Z,2.00
2018-12-12T09:17:57.549Z,2.10
2018-12-12T09:20:25.960Z,2.10
2018-12-12T09:22:54.371Z,2.11
2018-12-12T09:25:22.800Z,2.10
2018-12-12T09:27:51.192Z,2.10
2018-12-12T09:30:19.952Z,2.10
2018-12-12T09:32:48.392Z,2.01
2018-12-12T09:35:16.809Z,1.99
2018-12-12T09:37:45.204Z,2.03
2018-12-12T09:40:13.637Z,2.09
2018-12-12T09:42:42.030Z,2.05
2018-12-12T09:45:10.568Z,2.07
2018-12-12T09:47:39.210Z,2.09
2018-12-12T09:50:07.845Z,2.02
2018-12-12T09:52:36.272Z,2.08
2018-12-12T09:55:05.971Z,2.06
2018-12-12T09:57:34.356Z,2.12
2018-12-12T10:00:06.096Z,2.11
2018-12-12T10:02:34.540Z,2.20
2018-12-12T10:05:06.231Z,2.23
2018-12-12T10:07:34.665Z,2.26
2018-12-12T10:10:05.963Z,2.22
2018-12-12T10:12:34.415Z,2.31
2018-12-12T10:15:05.506Z,2.27
2018-12-12T10:17:33.912Z,2.20
2018-12-12T10:20:05.460Z,2.18
2018-12-12T10:22:33.851Z,2.24
2018-12-12T10:25:04.660Z,2.24
2018-12-12T10:27:33.082Z,2.22
2018-12-12T10:30:03.597Z,2.32
2018-12-12T10:32:32.008Z,2.30
2018-12-12T10:35:00.405Z,2.44
2018-12-12T10:37:28.836Z,2.57
2018-12-12T10:39:57.345Z,2.61
2018-12-12T10:42:25.824Z,2.52
2018-12-12T10:44:54.475Z,2.39
2018-12-12T10:47:22.971Z,2.40
2018-12-12T10:49:51.365Z,2.45
2018-12-12T10:52:19.777Z,2.53
2018-12-12T10:54:48.184Z,2.53
2018-12-12T10:57:16.608Z,2.50
2018-12-12T10:59:45.004Z,2.54
2018-12-12T11:02:18.894Z,2.57
2018-12-12T11:04:47.297Z,2.51
2018-12-12T11:07:15.747Z,2.52
2018-12-12T11:09:44.248Z,2.61
2018-12-12T11:12:12.645Z,2.54
2018-12-12T11:14:41.084Z,2.46
2018-12-12T11:17:09.495Z,2.53
2018-12-12T11:19:37.920Z,2.60
2018-12-12T11:22:06.316Z,2.69
2018-12-12T11:24:34.733Z,2.80
2018-12-12T11:27:05.204Z,2.76
2018-12-12T11:29:33.632Z,2.72
2018-12-12T11:32:04.665Z,2.66
2018-12-12T11:34:33.080Z,2.64
2018-12-12T11:37:03.634Z,2.61
2018-12-12T11:39:32.052Z,2.57
2018-12-12T11:42:00.426Z,2.67
2018-12-12T11:44:28.844Z,2.70
2018-12-12T11:46:58.033Z,2.79
2018-12-12T11:49:26.614Z,2.81
2018-12-12T11:51:54.999Z,2.67
2018-12-12T11:54:23.460Z,2.65
2018-12-12T11:56:51.877Z,2.70
2018-12-12T11:59:20.257Z,2.68
2018-12-12T12:01:48.692Z,2.67
2018-12-12T12:04:17.083Z,2.72
2018-12-12T12:06:45.512Z,2.79
2018-12-12T12:09:13.915Z,2.76
2018-12-12T12:11:42.339Z,2.59
2018-12-12T12:14:10.800Z,2.64
2018-12-12T12:16:39.247Z,2.71
2018-12-12T12:19:07.640Z,2.83
2018-12-12T12:21:36.089Z,2.80
2018-12-12T12:24:05.176Z,2.91
2018-12-12T12:26:33.825Z,2.97
2018-12-12T12:29:07.984Z,3.03
2018-12-12T12:31:36.607Z,3.09
2018-12-12T12:34:05.449Z,3.01
2018-12-12T12:36:33.835Z,3.03
2018-12-12T12:39:05.145Z,2.96
2018-12-12T12:41:33.524Z,3.00
2018-12-12T12:44:03.672Z,2.87
2018-12-12T12:46:32.134Z,2.83
2018-12-12T12:49:00.531Z,2.87
2018-12-12T12:51:28.960Z,2.97
2018-12-12T12:53:57.351Z,2.93
2018-12-12T12:56:25.790Z,3.02
2018-12-12T12:58:54.168Z,3.02
2018-12-12T13:01:22.608Z,2.87
2018-12-12T13:03:51.011Z,2.80
2018-12-12T13:06:19.452Z,2.71
2018-12-12T13:08:47.859Z,2.80
2018-12-12T13:11:16.297Z,2.89
2018-12-12T13:13:44.697Z,2.91
2018-12-12T13:16:13.263Z,2.87
2018-12-12T13:18:41.719Z,2.96
2018-12-12T13:21:10.159Z,2.95
2018-12-12T13:23:38.540Z,3.02
2018-12-12T13:26:07.337Z,2.92
2018-12-12T13:28:35.731Z,2.93
2018-12-12T13:31:06.556Z,2.89
2018-12-12T13:33:34.987Z,3.05
2018-12-12T13:36:06.023Z,3.07
2018-12-12T13:38:34.474Z,3.06
2018-12-12T13:41:07.566Z,3.02
2018-12-12T13:43:36.004Z,3.10
2018-12-12T13:46:04.980Z,3.23
2018-12-12T13:48:33.948Z,3.26
2018-12-12T13:51:04.747Z,3.36
2018-12-12T13:53:33.172Z,3.34
2018-12-12T13:56:05.067Z,3.34
2018-12-12T13:58:33.619Z,3.43
2018-12-12T14:01:06.887Z,3.40
2018-12-12T14:03:35.340Z,3.47
2018-12-12T14:06:05.145Z,3.53
2018-12-12T14:08:33.548Z,3.56
2018-12-12T14:11:05.181Z,3.56
2018-12-12T14:13:33.572Z,3.58
2018-12-12T14:16:03.683Z,3.62
2018-12-12T14:18:32.096Z,3.61
2018-12-12T14:21:00.841Z,3.56
2018-12-12T14:23:29.355Z,3.48
2018-12-12T14:25:58.603Z,3.58
2018-12-12T14:28:26.987Z,3.60
2018-12-12T14:30:55.381Z,3.62
2018-12-12T14:33:23.877Z,3.66
2018-12-12T14:35:52.330Z,3.66
2018-12-12T14:38:21.810Z,3.76
2018-12-12T14:40:50.260Z,3.89
2018-12-12T14:43:18.644Z,3.95
2018-12-12T14:45:47.072Z,3.97
2018-12-12T14:48:15.504Z,3.88
2018-12-12T14:50:43.944Z,3.91
2018-12-12T14:53:12.353Z,3.94
2018-12-12T14:55:40.736Z,3.96
2018-12-12T14:58:09.193Z,3.98
2018-12-12T15:00:37.840Z,4.02
2018-12-12T15:03:06.703Z,4.03
2018-12-12T15:05:35.180Z,4.01
2018-12-12T15:08:05.856Z,3.99
2018-12-12T15:10:34.248Z,4.01
2018-12-12T15:13:09.156Z,3.99
2018-12-12T15:15:37.544Z,3.88
2018-12-12T15:18:06.692Z,3.90
2018-12-12T15:20:35.115Z,3.80
2018-12-12T15:23:05.897Z,3.85
2018-12-12T15:25:35.800Z,3.92
2018-12-12T15:28:08.040Z,3.89
2018-12-12T15:30:36.432Z,3.86
2018-12-12T15:33:05.865Z,3.97
2018-12-12T15:35:34.612Z,3.97
2018-12-12T15:38:09.788Z,3.95
2018-12-12T15:40:38.220Z,4.01
2018-12-12T15:43:06.965Z,4.01
2018-12-12T15:45:35.636Z,4.05
2018-12-12T15:48:05.788Z,4.01
2018-12-12T15:50:34.181Z,4.06
2018-12-12T15:53:04.496Z,4.12
2018-12-12T15:55:32.896Z,4.14
2018-12-12T15:58:03.536Z,4.14
2018-12-12T16:00:32.247Z,4.11
2018-12-12T16:03:00.925Z,4.13
2018-12-12T16:05:29.308Z,4.11
2018-12-12T16:07:57.708Z,4.11
2018-12-12T16:10:26.254Z,4.07
2018-12-12T16:12:55.040Z,4.09
2018-12-12T16:15:23.763Z,4.10
2018-12-12T16:17:52.152Z,4.08
2018-12-12T16:20:20.588Z,4.14
2018-12-12T16:22:49.420Z,4.16
2018-12-12T16:25:18.869Z,4.15
2018-12-12T16:27:47.257Z,4.19
2018-12-12T16:30:15.897Z,4.18
2018-12-12T16:32:44.649Z,4.19
2018-12-12T16:35:13.069Z,4.19
2018-12-12T16:37:41.511Z,4.17
2018-12-12T16:40:11.808Z,4.16
2018-12-12T16:42:40.203Z,4.15
2018-12-12T16:45:08.872Z,4.11
2018-12-12T16:47:37.368Z,4.08
2018-12-12T16:50:07.195Z,4.07
2018-12-12T16:52:35.688Z,4.05
2018-12-12T16:55:07.537Z,4.05
2018-12-12T16:57:35.999Z,4.07
2018-12-12T17:00:08.200Z,4.08
2018-12-12T17:02:36.649Z,4.08
2018-12-12T17:05:06.600Z,4.09
2018-12-12T17:07:35.430Z,4.13
2018-12-12T17:10:10.548Z,4.12
2018-12-12T17:12:37.808Z,4.11
2018-12-12T17:15:07.493Z,4.14
2018-12-12T17:17:35.969Z,4.13
2018-12-12T17:20:08.845Z,4.09
2018-12-12T17:22:37.343Z,4.11
2018-12-12T17:25:06.080Z,4.12
2018-12-12T17:27:34.617Z,4.14
2018-12-12T17:30:12.756Z,4.10
2018-12-12T17:32:41.161Z,4.14
2018-12-12T17:35:10.124Z,4.13
2018-12-12T17:37:38.540Z,4.14
2018-12-12T17:40:07.305Z,4.10
2018-12-12T17:42:35.704Z,4.17
2018-12-12T17:45:09.296Z,4.15
2018-12-12T17:47:37.764Z,4.18
2018-12-12T17:50:07.204Z,4.18
2018-12-12T17:52:35.630Z,4.15
2018-12-12T17:55:06.294Z,4.12
2018-12-12T17:57:34.767Z,4.18
2018-12-12T18:00:06.190Z,4.16
2018-12-12T18:02:34.628Z,4.10
2018-12-12T18:05:05.983Z,4.14
2018-12-12T18:07:34.668Z,4.18
2018-12-12T18:10:05.525Z,4.23
2018-12-12T18:12:33.913Z,4.25
2018-12-12T18:15:04.650Z,4.17
2018-12-12T18:17:33.085Z,4.19
2018-12-12T18:20:03.669Z,4.20
2018-12-12T18:22:32.552Z,4.23
2018-12-12T18:25:04.944Z,4.24
2018-12-12T18:27:33.352Z,4.20
2018-12-12T18:30:04.231Z,4.19
2018-12-12T18:32:32.642Z,4.16
2018-12-12T18:35:03.674Z,4.11
2018-12-12T18:37:32.105Z,4.21
2018-12-12T18:40:00.592Z,4.09
2018-12-12T18:42:29.124Z,3.99
2018-12-12T18:44:57.807Z,4.04
2018-12-12T18:47:26.197Z,3.93
2018-12-12T18:49:54.964Z,4.01
2018-12-12T18:52:23.386Z,3.96
2018-12-12T18:54:51.766Z,3.91
2018-12-12T18:57:20.262Z,3.86
2018-12-12T18:59:48.666Z,3.92
2018-12-12T19:02:17.059Z,4.02
2018-12-12T19:04:45.502Z,4.04
2018-12-12T19:07:14.007Z,4.04
2018-12-12T19:09:42.428Z,4.04
2018-12-12T19:12:10.824Z,4.12
2018-12-12T19:14:43.387Z,4.07
2018-12-12T19:17:11.876Z,3.95
2018-12-12T19:19:40.275Z,3.92
2018-12-12T19:22:08.665Z,3.93
2018-12-12T19:24:37.432Z,3.98
2018-12-12T19:27:05.836Z,4.08
2018-12-12T19:29:34.269Z,4.11
2018-12-12T19:32:04.597Z,4.16
2018-12-12T19:34:33.113Z,4.15
2018-12-12T19:37:03.599Z,4.23
2018-12-12T19:39:32.005Z,4.11
2018-12-12T19:42:00.442Z,4.08
2018-12-12T19:44:28.884Z,4.13
2018-12-12T19:46:57.338Z,4.12
2018-12-12T19:49:25.952Z,4.13
2018-12-12T19:51:54.350Z,4.15
2018-12-12T19:54:22.730Z,4.19
2018-12-12T19:56:51.415Z,4.15
2018-12-12T19:59:20.070Z,4.23
2018-12-12T20:01:48.511Z,4.24
2018-12-12T20:04:16.908Z,4.28
2018-12-12T20:06:45.359Z,4.23
2018-12-12T20:09:13.787Z,4.20
2018-12-12T20:11:42.245Z,4.19
2018-12-12T20:14:10.637Z,4.10
2018-12-12T20:16:39.274Z,4.09
2018-12-12T20:19:07.739Z,4.10
2018-12-12T20:21:36.154Z,4.16
2018-12-12T20:24:05.828Z,4.14
2018-12-12T20:26:34.340Z,4.16
2018-12-12T20:29:06.584Z,4.02
2018-12-12T20:31:35.028Z,4.11
2018-12-12T20:34:05.745Z,4.07
2018-12-12T20:36:34.162Z,4.04
2018-12-12T20:39:05.428Z,4.00
2018-12-12T20:41:33.836Z,3.97
2018-12-12T20:44:08.833Z,4.08
2018-12-12T20:46:37.275Z,4.05
2018-12-12T20:49:06.544Z,4.04
2018-12-12T20:51:34.940Z,4.02
2018-12-12T20:54:05.785Z,4.05
2018-12-12T20:56:34.180Z,3.94
2018-12-12T20:59:04.497Z,3.88
2018-12-12T21:01:32.893Z,3.84
2018-12-12T21:04:05.173Z,3.85
2018-12-12T21:06:33.563Z,3.80
2018-12-12T21:09:04.816Z,3.86
2018-12-12T21:11:33.409Z,3.90
2018-12-12T21:14:04.181Z,3.82
2018-12-12T21:16:32.571Z,3.80
2018-12-12T21:19:04.152Z,3.81
2018-12-12T21:21:32.881Z,3.80
2018-12-12T21:24:03.465Z,3.83
2018-12-12T21:26:31.857Z,3.80
2018-12-12T21:29:00.552Z,3.85
2018-12-12T21:31:28.956Z,3.75
2018-12-12T21:33:57.352Z,3.81
2018-12-12T21:36:26.107Z,3.79
2018-12-12T21:38:54.587Z,3.79
2018-12-12T21:41:23.052Z,3.82
2018-12-12T21:43:51.485Z,3.81
2018-12-12T21:46:19.872Z,3.82
2018-12-12T21:48:48.360Z,3.83
2018-12-12T21:51:16.833Z,3.79
2018-12-12T21:53:45.237Z,3.80
2018-12-12T21:56:13.744Z,3.82
2018-12-12T21:58:42.160Z,3.83
2018-12-12T22:01:10.548Z,3.84
2018-12-12T22:03:38.960Z,3.91
2018-12-12T22:06:07.656Z,3.87
2018-12-12T22:08:36.316Z,3.88
2018-12-12T22:11:06.435Z,3.87
2018-12-12T22:13:34.836Z,3.90
2018-12-12T22:16:05.256Z,3.94
2018-12-12T22:18:33.668Z,3.93
2018-12-12T22:21:05.827Z,3.94
2018-12-12T22:23:34.239Z,3.90
2018-12-12T22:26:04.439Z,3.91
2018-12-12T22:28:32.876Z,3.91
2018-12-12T22:31:04.425Z,3.94
2018-12-12T22:33:32.849Z,3.91
2018-12-12T22:36:03.634Z,3.89
2018-12-12T22:38:32.454Z,3.88
2018-12-12T22:41:00.937Z,3.87
2018-12-12T22:43:29.356Z,3.84
2018-12-12T22:45:57.873Z,3.86
2018-12-12T22:48:26.253Z,3.86
2018-12-12T22:50:54.673Z,3.88
2018-12-12T22:53:23.106Z,3.85
2018-12-12T22:55:51.533Z,3.84
2018-12-12T22:58:19.944Z,3.86
2018-12-12T23:00:54.084Z,3.87
2018-12-12T23:03:22.491Z,3.90
2018-12-12T23:05:50.883Z,3.89
2018-12-12T23:08:19.292Z,3.91
2018-12-12T23:10:47.684Z,3.92
2018-12-12T23:13:16.100Z,3.93
2018-12-12T23:15:44.475Z,3.88
2018-12-12T23:18:12.887Z,3.90
2018-12-12T23:20:42.231Z,3.92
2018-12-12T23:23:10.843Z,3.93
2018-12-12T23:25:39.236Z,3.87
2018-12-12T23:28:07.684Z,3.86
2018-12-12T23:30:36.068Z,3.88
2018-12-12T23:33:05.028Z,3.86
2018-12-12T23:35:33.421Z,3.84
2018-12-12T23:38:03.661Z,3.85
2018-12-12T23:40:32.041Z,3.82
2018-12-12T23:43:00.471Z,3.88
2018-12-12T23:45:29.390Z,3.91
2018-12-12T23:47:57.780Z,3.96
2018-12-12T23:50:26.180Z,3.95
2018-12-12T23:52:54.847Z,3.92
2018-12-12T23:55:29.903Z,3.95
2018-12-12T23:57:58.658Z,3.89
